Time;durP1;ratioP1;P1;durP2;ratioP2;P2;SDS_P1;SDS_P2;PMS_P1;PMS_P2;Temp;Humidity;BMP_temperature;BMP_pressure;BME280_temperature;BME280_humidity;BME280_pressure;Samples;Min_cycle;Max_cycle;Signal;HPM_P1;HPM_P2
2023/01/26 00:00:45;;;;;;;28.87;17.67;;;;;;;0.44;100.00;151482.63;4989323;28;20537;-86
2023/01/26 00:03:12;;;;;;;28.33;18.70;;;;;;;0.47;100.00;151490.34;4989233;28;21155;-85
2023/01/26 00:05:39;;;;;;;35.07;19.40;;;;;;;0.44;100.00;151483.91;4996126;28;20983;-86
2023/01/26 00:08:08;;;;;;;29.07;18.80;;;;;;;0.44;100.00;151482.63;4988316;28;20803;-86
2023/01/26 00:10:35;;;;;;;32.30;19.50;;;;;;;0.39;100.00;151469.78;4991564;28;20451;-86
2023/01/26 00:13:02;;;;;;;29.63;18.83;;;;;;;0.38;100.00;151468.50;4989884;28;20436;-86
2023/01/26 00:15:29;;;;;;;28.63;17.70;;;;;;;0.40;100.00;151473.63;4990128;28;20942;-86
2023/01/26 00:17:55;;;;;;;31.10;18.63;;;;;;;0.38;100.00;151468.50;4994212;28;20837;-85
2023/01/26 00:20:22;;;;;;;28.00;17.40;;;;;;;0.40;100.00;151472.31;4995394;28;20447;-85
2023/01/26 00:22:48;;;;;;;37.23;19.97;;;;;;;0.43;100.00;151480.03;4989252;28;20488;-85
2023/01/26 00:25:17;;;;;;;33.53;18.20;;;;;;;0.40;100.00;151472.31;4990336;28;20472;-86
2023/01/26 00:27:43;;;;;;;31.47;18.50;;;;;;;0.32;100.00;151451.84;4992354;28;20455;-85
2023/01/26 00:30:11;;;;;;;26.90;16.80;;;;;;;0.25;100.00;151433.84;5006934;28;20441;-85
2023/01/26 00:32:37;;;;;;;29.80;17.80;;;;;;;0.26;100.00;151436.41;4992654;28;20453;-86
2023/01/26 00:35:05;;;;;;;27.20;18.03;;;;;;;0.34;100.00;151456.97;4974982;28;20479;-86
2023/01/26 00:37:32;;;;;;;36.40;18.93;;;;;;;0.28;100.00;151441.53;4993198;28;20811;-85
2023/01/26 00:39:59;;;;;;;33.37;18.73;;;;;;;0.27;100.00;151438.97;4974735;28;20458;-86
2023/01/26 00:42:28;;;;;;;26.57;17.20;;;;;;;0.25;100.00;151433.84;4986552;28;20458;-86
2023/01/26 00:44:54;;;;;;;36.70;19.23;;;;;;;0.25;100.00;151433.84;4988475;28;20484;-86
2023/01/26 00:47:21;;;;;;;34.07;18.70;;;;;;;0.18;100.00;151417.19;4991266;28;20443;-85
2023/01/26 00:49:47;;;;;;;33.13;20.07;;;;;;;0.23;100.00;151428.72;4989323;28;20962;-86
2023/01/26 00:52:14;;;;;;;31.53;17.23;;;;;;;0.20;100.00;151421.00;4969197;28;20556;-86
2023/01/26 00:54:41;;;;;;;29.73;18.77;;;;;;;0.16;100.00;151410.75;5008077;28;20500;-86
2023/01/26 00:57:07;;;;;;;27.13;16.37;;;;;;;0.17;100.00;151413.28;4986111;28;20834;-86
2023/01/26 00:59:37;;;;;;;28.20;17.43;;;;;;;0.23;100.00;151430.00;4989421;28;20459;-86
2023/01/26 01:02:04;;;;;;;30.20;16.70;;;;;;;0.26;100.00;151436.41;4990013;28;20559;-86
2023/01/26 01:04:31;;;;;;;35.87;18.33;;;;;;;0.21;100.00;151424.88;4988827;28;20559;-86
2023/01/26 01:07:00;;;;;;;36.90;19.10;;;;;;;0.26;100.00;151436.41;4990947;28;20500;-86
2023/01/26 01:09:27;;;;;;;32.20;18.10;;;;;;;0.25;100.00;151433.84;4989352;28;20459;-85
2023/01/26 01:11:53;;;;;;;38.33;18.63;;;;;;;0.22;100.00;151427.41;4987841;28;20541;-86
2023/01/26 01:14:20;;;;;;;31.77;17.77;;;;;;;0.18;100.00;151417.19;4992819;28;20456;-86
2023/01/26 01:16:48;;;;;;;32.50;17.90;;;;;;;0.17;100.00;151413.28;4990826;28;20542;-85
2023/01/26 01:19:16;;;;;;;29.13;16.50;;;;;;;0.20;100.00;151421.00;4999397;28;20484;-86
2023/01/26 01:21:43;;;;;;;28.73;17.10;;;;;;;0.15;100.00;151408.19;4991833;28;20450;-86
2023/01/26 01:24:10;;;;;;;30.50;15.90;;;;;;;0.16;100.00;151410.75;4987154;28;20451;-86
2023/01/26 01:26:37;;;;;;;27.70;16.30;;;;;;;0.15;100.00;151408.19;4962830;28;20895;-86
2023/01/26 01:29:04;;;;;;;30.60;17.50;;;;;;;0.15;100.00;151408.19;5004137;28;20459;-85
2023/01/26 01:31:31;;;;;;;33.27;17.90;;;;;;;0.15;100.00;151408.19;4991963;28;20450;-85
2023/01/26 01:33:59;;;;;;;33.13;17.77;;;;;;;0.09;100.00;151392.75;4990104;28;20456;-86
2023/01/26 01:36:28;;;;;;;35.87;16.70;;;;;;;0.13;100.00;151403.06;4988909;28;20514;-86
2023/01/26 01:38:54;;;;;;;34.20;16.30;;;;;;;0.13;100.00;151404.34;4989863;28;20540;-86
2023/01/26 01:41:22;;;;;;;28.60;15.37;;;;;;;0.19;100.00;151418.41;4990192;28;20447;-86
2023/01/26 01:43:49;;;;;;;27.03;16.67;;;;;;;0.23;100.00;151428.72;4989609;28;20463;-86
2023/01/26 01:46:21;;;;;;;29.70;15.70;;;;;;;0.29;100.00;151445.38;4986787;28;20474;-86
2023/01/26 01:48:52;;;;;;;26.70;16.00;;;;;;;0.30;100.00;151447.97;4988597;28;20847;-86
2023/01/26 01:51:23;;;;;;;29.93;16.30;;;;;;;0.33;100.00;151454.38;4987042;28;20444;-86
2023/01/26 01:53:51;;;;;;;30.47;17.70;;;;;;;0.35;100.00;151459.50;4981571;28;20491;-86
2023/01/26 01:56:20;;;;;;;33.43;16.80;;;;;;;0.32;100.00;151453.06;4987580;28;20452;-86
2023/01/26 01:58:49;;;;;;;31.77;16.57;;;;;;;0.26;100.00;151436.41;4965922;28;20465;-86
2023/01/26 02:01:16;;;;;;;30.83;17.93;;;;;;;0.24;100.00;151431.28;4990439;28;20449;-86
2023/01/26 02:03:44;;;;;;;30.43;15.90;;;;;;;0.26;100.00;151436.41;4982442;28;20970;-85
2023/01/26 02:06:13;;;;;;;33.37;16.00;;;;;;;0.18;100.00;151415.88;4971603;28;20479;-86
2023/01/26 02:08:44;;;;;;;29.80;16.33;;;;;;;0.11;100.00;151399.16;4989248;28;20463;-85
2023/01/26 02:11:15;;;;;;;26.80;14.73;;;;;;;0.15;100.00;151409.47;4987494;28;20459;-86
2023/01/26 02:13:44;;;;;;;29.70;15.50;;;;;;;0.17;100.00;151414.59;4972567;28;20506;-86
2023/01/26 02:16:12;;;;;;;31.00;16.23;;;;;;;0.23;100.00;151430.00;4969228;28;21082;-86
2023/01/26 02:18:39;;;;;;;27.93;16.80;;;;;;;0.17;100.00;151413.28;4989805;28;20735;-86
2023/01/26 02:21:07;;;;;;;40.23;17.67;;;;;;;0.18;100.00;151415.88;4988089;28;20537;-86
2023/01/26 02:23:43;;;;;;;34.00;17.97;;;;;;;0.13;100.00;151404.34;4989525;28;20459;-85
2023/01/26 02:26:13;;;;;;;41.77;16.40;;;;;;;0.08;100.00;151390.22;4980327;28;20480;-86
2023/01/26 02:28:40;;;;;;;34.83;17.23;;;;;;;0.04;100.00;151379.94;4989641;28;20933;-85
2023/01/26 02:31:08;;;;;;;32.53;16.90;;;;;;;0.02;100.00;151376.09;4992921;28;20449;-85
2023/01/26 02:33:35;;;;;;;26.60;15.57;;;;;;;0.05;100.00;151383.81;4960093;28;20465;-85
2023/01/26 02:36:04;;;;;;;36.10;17.10;;;;;;;0.07;100.00;151387.63;4972955;28;20493;-85
2023/01/26 02:38:39;;;;;;;33.30;17.40;;;;;;;0.03;100.00;151377.41;4966653;28;20460;-85
2023/01/26 02:41:08;;;;;;;34.23;17.23;;;;;;;0.05;100.00;151382.50;4998182;28;20533;-86
2023/01/26 02:43:35;;;;;;;33.27;16.57;;;;;;;0.00;100.00;151370.97;4970096;28;20960;-85
2023/01/26 02:46:04;;;;;;;31.93;16.83;;;;;;;-0.03;100.00;151364.53;4989054;28;20541;-85
2023/01/26 02:51:18;;;;;;;30.10;16.93;;;;;;;-0.04;100.00;151361.97;4972356;28;20440;-86
2023/01/26 02:53:46;;;;;;;31.70;16.80;;;;;;;-0.07;100.00;151354.28;4971560;28;20458;-86
2023/01/26 02:56:11;;;;;;;24.37;14.93;;;;;;;-0.03;100.00;151363.28;4971579;28;20455;-85
2023/01/26 02:58:40;;;;;;;29.23;15.90;;;;;;;0.01;100.00;151373.53;4973114;28;20905;-85
2023/01/26 03:01:07;;;;;;;23.57;14.63;;;;;;;0.10;100.00;151395.34;4998042;28;20281;-85
2023/01/26 03:03:44;;;;;;;32.87;15.83;;;;;;;0.08;100.00;151391.47;4972271;28;20452;-86
2023/01/26 03:06:12;;;;;;;28.80;15.13;;;;;;;0.13;100.00;151403.06;4988564;28;20489;-86
2023/01/26 03:08:39;;;;;;;24.60;14.60;;;;;;;0.15;100.00;151409.47;4973343;28;20457;-86
2023/01/26 03:11:06;;;;;;;23.40;14.50;;;;;;;0.13;100.00;151403.06;4986640;28;20493;-86
2023/01/26 03:13:33;;;;;;;29.70;16.17;;;;;;;0.13;100.00;151403.06;4989218;28;20483;-86
2023/01/26 03:16:05;;;;;;;25.20;15.03;;;;;;;0.00;100.00;151372.22;4987898;28;20487;-86
2023/01/26 03:29:38;;;;;;;23.70;14.60;;;;;;;0.03;100.00;151377.41;4960049;28;20462;-85
2023/01/26 03:32:06;;;;;;;26.13;14.13;;;;;;;0.06;100.00;151385.06;4982386;28;20469;-86
2023/01/26 03:34:34;;;;;;;29.77;15.70;;;;;;;0.02;100.00;151376.09;4982844;28;20449;-86
2023/01/26 03:37:00;;;;;;;23.57;14.53;;;;;;;-0.02;100.00;151367.09;4988130;28;20484;-85
2023/01/26 03:56:16;;;;;;;26.63;14.10;;;;;;;-0.04;100.00;151361.97;4966653;28;20432;-85
2023/01/26 03:58:44;;;;;;;20.00;12.23;;;;;;;-0.04;100.00;151360.69;4975193;28;20519;-86
2023/01/26 04:01:18;;;;;;;27.87;14.87;;;;;;;0.00;100.00;151372.22;4987645;28;20453;-85
2023/01/26 04:09:20;;;;;;;23.73;13.03;;;;;;;-0.14;100.00;151335.03;4987843;28;20479;-85
2023/01/26 04:11:47;;;;;;;20.10;11.10;;;;;;;-0.12;100.00;151341.44;4990954;28;20554;-85
2023/01/26 04:22:42;;;;;;;22.10;11.97;;;;;;;-0.21;100.00;151318.34;4974254;28;20464;-87
2023/01/26 04:25:10;;;;;;;21.00;11.97;;;;;;;-0.22;100.00;151314.50;4987370;28;20483;-86
2023/01/26 04:27:38;;;;;;;21.87;11.20;;;;;;;-0.29;100.00;151297.81;4959402;28;20456;-85
2023/01/26 04:30:06;;;;;;;23.57;12.77;;;;;;;-0.27;100.00;151302.97;4990570;28;20467;-85
2023/01/26 04:32:32;;;;;;;45.87;16.60;;;;;;;-0.23;100.00;151313.22;4963029;28;20497;-86
2023/01/26 04:35:00;;;;;;;26.30;13.47;;;;;;;-0.31;100.00;151292.69;4989919;28;20804;-86
2023/01/26 04:37:28;;;;;;;38.63;15.03;;;;;;;-0.29;100.00;151297.81;4982358;28;20463;-86
2023/01/26 04:39:55;;;;;;;29.80;13.70;;;;;;;-0.34;100.00;151283.69;4975860;28;20809;-86
2023/01/26 04:42:23;;;;;;;22.70;11.30;;;;;;;-0.35;100.00;151282.44;4975602;28;20477;-85
2023/01/26 04:44:51;;;;;;;22.20;12.33;;;;;;;-0.34;100.00;151284.97;4977527;28;20508;-86
2023/01/26 04:47:18;;;;;;;21.30;12.63;;;;;;;-0.32;100.00;151290.09;4990284;28;20852;-86
2023/01/26 04:49:45;;;;;;;24.00;11.03;;;;;;;-0.30;100.00;151295.28;4972927;28;20450;-85
2023/01/26 04:52:15;;;;;;;23.10;12.10;;;;;;;-0.34;100.00;151283.69;4967530;28;20478;-85
2023/01/26 04:54:42;;;;;;;19.70;10.73;;;;;;;-0.34;100.00;151284.97;4990634;28;20454;-85
2023/01/26 04:57:10;;;;;;;19.57;10.53;;;;;;;-0.32;100.00;151290.09;4986549;28;20456;-85
2023/01/26 04:59:37;;;;;;;20.23;11.93;;;;;;;-0.30;100.00;151293.97;4983770;28;20456;-85
2023/01/26 05:02:04;;;;;;;21.83;12.10;;;;;;;-0.33;100.00;151287.56;4985437;28;20512;-85
2023/01/26 05:04:31;;;;;;;20.33;11.07;;;;;;;-0.30;100.00;151295.28;4982169;28;20451;-87
2023/01/26 05:06:58;;;;;;;29.33;12.07;;;;;;;-0.30;100.00;151293.97;4975697;28;20481;-85
2023/01/26 05:09:28;;;;;;;19.10;10.37;;;;;;;-0.38;100.00;151274.75;4973140;28;20458;-85
2023/01/26 05:15:15;;;;;;;18.50;10.13;;;;;;;-0.38;100.00;151273.44;4980746;28;20925;-86
2023/01/26 05:18:20;;;;;;;19.30;11.27;;;;;;;-0.39;100.00;151272.16;4968219;28;20470;-85
2023/01/26 05:20:53;;;;;;;21.57;10.63;;;;;;;-0.36;100.00;151278.56;4951373;28;20603;-86
2023/01/26 05:23:27;;;;;;;21.97;11.00;;;;;;;-0.36;100.00;151278.56;4984597;28;20454;-85
2023/01/26 05:26:14;;;;;;;38.60;13.90;;;;;;;-0.43;100.00;151261.94;4989642;28;20498;-85
2023/01/26 05:28:55;;;;;;;19.63;11.80;;;;;;;-0.41;100.00;151265.75;4987788;28;20557;-85
2023/01/26 05:31:22;;;;;;;42.40;15.00;;;;;;;-0.44;100.00;151259.34;4992229;28;20448;-85
2023/01/26 05:33:49;;;;;;;19.70;12.07;;;;;;;-0.40;100.00;151268.34;4976663;28;20458;-85
2023/01/26 05:36:21;;;;;;;19.10;11.47;;;;;;;-0.40;100.00;151269.63;4965325;28;20454;-85
2023/01/26 05:38:48;;;;;;;26.20;13.03;;;;;;;-0.41;100.00;151267.03;4968460;28;21218;-85
2023/01/26 05:41:17;;;;;;;21.00;11.77;;;;;;;-0.48;100.00;151247.81;4982200;28;20537;-85
2023/01/26 05:44:04;;;;;;;20.27;11.80;;;;;;;-0.49;100.00;151246.53;4987005;28;20850;-85
2023/01/26 05:46:51;;;;;;;29.60;12.40;;;;;;;-0.50;100.00;151243.94;4987609;28;20487;-85
2023/01/26 05:49:18;;;;;;;19.80;10.60;;;;;;;-0.55;100.00;151231.13;4971012;28;20458;-85
2023/01/26 05:51:45;;;;;;;18.87;12.80;;;;;;;-0.49;100.00;151246.53;4982838;28;20844;-85
2023/01/26 05:54:13;;;;;;;20.57;11.43;;;;;;;-0.51;100.00;151241.41;4982255;28;20536;-85
2023/01/26 05:56:41;;;;;;;22.57;12.27;;;;;;;-0.55;100.00;151231.13;4983754;28;20455;-85
2023/01/26 05:59:08;;;;;;;23.17;11.40;;;;;;;-0.57;100.00;151224.69;4988408;28;20450;-85
2023/01/26 06:01:35;;;;;;;19.43;11.50;;;;;;;-0.66;100.00;151204.19;4973717;28;20513;-85
2023/01/26 06:04:06;;;;;;;20.37;10.67;;;;;;;-0.67;100.00;151200.34;4985565;28;20804;-85
2023/01/26 06:06:39;;;;;;;19.10;9.40;;;;;;;-0.68;100.00;151197.78;4965615;28;20540;-85
2023/01/26 06:09:28;;;;;;;14.87;9.00;;;;;;;-0.62;100.00;151213.19;4965728;28;20447;-85
2023/01/26 06:11:57;;;;;;;16.97;10.67;;;;;;;-0.70;100.00;151193.94;4986815;28;20780;-86
2023/01/26 06:14:42;;;;;;;16.23;10.67;;;;;;;-0.67;100.00;151200.34;4985784;28;20448;-85
2023/01/26 06:17:10;;;;;;;18.20;11.57;;;;;;;-0.67;100.00;151200.34;4986397;28;20487;-86
2023/01/26 06:19:37;;;;;;;19.77;11.00;;;;;;;-0.72;100.00;151187.53;4978738;28;20457;-85
2023/01/26 06:22:04;;;;;;;17.67;10.77;;;;;;;-0.76;100.00;151177.25;4963790;28;20511;-85
2023/01/26 06:24:33;;;;;;;20.03;10.23;;;;;;;-0.68;100.00;151199.06;4964251;28;21091;-86
2023/01/26 06:27:01;;;;;;;16.80;10.00;;;;;;;-0.70;100.00;151192.66;4994836;28;20493;-85
2023/01/26 06:29:28;;;;;;;17.83;10.40;;;;;;;-0.67;100.00;151200.34;4970527;28;20498;-86
2023/01/26 06:31:55;;;;;;;15.73;10.00;;;;;;;-0.69;100.00;151195.25;4968038;28;20493;-86
2023/01/26 06:34:21;;;;;;;22.10;10.80;;;;;;;-0.69;100.00;151196.47;4975087;28;20923;-85
2023/01/26 06:36:49;;;;;;;15.83;10.50;;;;;;;-0.66;100.00;151202.88;4970728;28;20462;-86
2023/01/26 06:39:23;;;;;;;17.80;11.00;;;;;;;-0.67;100.00;151200.34;4986463;28;20808;-86
2023/01/26 06:41:50;;;;;;;17.13;11.30;;;;;;;-0.70;100.00;151193.94;4978124;28;20451;-86
2023/01/26 06:44:18;;;;;;;18.50;10.50;;;;;;;-0.79;100.00;151169.56;4983390;28;20499;-86
2023/01/26 06:46:45;;;;;;;22.50;11.30;;;;;;;-0.75;100.00;151179.84;4963032;28;20468;-86
2023/01/26 06:49:12;;;;;;;23.40;11.90;;;;;;;-0.71;100.00;151190.06;4984835;28;20468;-86
2023/01/26 06:51:44;;;;;;;17.03;10.90;;;;;;;-0.83;100.00;151159.31;4973589;28;20537;-86
2023/01/26 06:54:12;;;;;;;23.50;11.57;;;;;;;-0.81;100.00;151164.44;4982718;28;21134;-86
2023/01/26 06:56:58;;;;;;;19.67;10.50;;;;;;;-0.80;100.00;151167.00;4971284;28;20934;-87
2023/01/26 06:59:46;;;;;;;21.00;10.20;;;;;;;-0.84;100.00;151156.72;4988117;28;20480;-86
2023/01/26 07:02:32;;;;;;;16.00;10.10;;;;;;;-0.84;100.00;151158.03;4987964;28;20472;-86
2023/01/26 07:04:59;;;;;;;17.47;9.70;;;;;;;-0.83;100.00;151159.31;4990642;28;20490;-86
2023/01/26 07:07:26;;;;;;;21.50;11.00;;;;;;;-0.88;100.00;151146.50;4991291;28;20487;-86
2023/01/26 07:09:53;;;;;;;18.77;11.47;;;;;;;-0.87;100.00;151149.03;4988310;28;20499;-86
2023/01/26 07:12:23;;;;;;;22.00;10.30;;;;;;;-0.85;100.00;151155.44;4989600;28;20455;-86
2023/01/26 07:14:51;;;;;;;20.83;11.83;;;;;;;-0.82;100.00;151161.91;4986896;28;20467;-86
2023/01/26 07:17:18;;;;;;;21.60;11.57;;;;;;;-0.89;100.00;151143.91;4988077;28;20497;-85
2023/01/26 07:19:45;;;;;;;21.87;11.70;;;;;;;-0.85;100.00;151154.19;4989587;28;20459;-85
2023/01/26 07:22:14;;;;;;;21.40;11.70;;;;;;;-0.83;100.00;151159.31;4983524;28;20890;-85
2023/01/26 07:24:40;;;;;;;21.00;10.73;;;;;;;-0.85;100.00;151154.19;4987834;28;20450;-85
2023/01/26 07:27:07;;;;;;;19.03;12.37;;;;;;;-0.86;100.00;151152.91;4989946;28;20524;-86
2023/01/26 07:29:34;;;;;;;19.90;11.47;;;;;;;-0.73;100.00;151186.25;4984454;28;20460;-86
2023/01/26 07:32:02;;;;;;;20.57;11.83;;;;;;;-0.82;100.00;151163.16;4990167;28;20455;-86
2023/01/26 07:34:29;;;;;;;17.60;10.30;;;;;;;-0.80;100.00;151167.00;4988665;28;20454;-85
2023/01/26 07:36:55;;;;;;;20.63;11.87;;;;;;;-0.81;100.00;151165.72;4988470;28;20463;-85
2023/01/26 07:39:22;;;;;;;19.80;10.37;;;;;;;-0.82;100.00;151163.16;4984957;28;20549;-85
2023/01/26 07:41:49;;;;;;;21.00;11.23;;;;;;;-0.80;100.00;151167.00;5019341;28;20550;-86
2023/01/26 07:44:39;;;;;;;15.90;10.83;;;;;;;-0.82;100.00;151161.91;4966334;28;21788;-85
2023/01/26 07:47:08;;;;;;;21.03;10.77;;;;;;;-0.84;100.00;151156.72;4978577;28;20505;-85
2023/01/26 07:49:35;;;;;;;20.13;11.03;;;;;;;-0.88;100.00;151147.78;4995597;28;20460;-85
2023/01/26 07:52:02;;;;;;;22.30;11.50;;;;;;;-0.82;100.00;151163.16;4984319;28;20878;-85
2023/01/26 07:54:29;;;;;;;18.40;11.33;;;;;;;-0.84;100.00;151158.03;4986163;28;20824;-85
2023/01/26 07:56:56;;;;;;;18.80;10.67;;;;;;;-0.79;100.00;151169.56;4987364;28;20576;-86
2023/01/26 07:59:23;;;;;;;21.53;10.67;;;;;;;-0.84;100.00;151156.72;4986030;28;20457;-86
2023/01/26 08:01:49;;;;;;;16.03;11.00;;;;;;;-0.85;100.00;151154.19;4987228;28;20461;-86
2023/01/26 08:04:18;;;;;;;20.17;10.30;;;;;;;-0.91;100.00;151138.78;4989322;28;20525;-86
2023/01/26 08:06:45;;;;;;;18.27;10.73;;;;;;;-0.84;100.00;151158.03;4987935;28;20828;-86
2023/01/26 08:09:11;;;;;;;21.07;11.27;;;;;;;-0.79;100.00;151169.56;4988254;28;20462;-86
2023/01/26 08:11:38;;;;;;;18.63;10.40;;;;;;;-0.69;100.00;151196.47;4987809;28;20453;-86
2023/01/26 08:14:05;;;;;;;27.73;12.73;;;;;;;-0.77;100.00;151174.72;5003792;28;20463;-86
2023/01/26 08:16:32;;;;;;;16.70;10.90;;;;;;;-0.82;100.00;151163.16;4986869;28;20847;-86
2023/01/26 08:18:58;;;;;;;18.73;12.70;;;;;;;-0.78;100.00;151173.44;4984603;28;20521;-86
2023/01/26 08:21:26;;;;;;;22.27;12.20;;;;;;;-0.79;100.00;151169.56;4987673;28;20467;-85
2023/01/26 08:23:54;;;;;;;15.53;10.10;;;;;;;-0.82;100.00;151161.91;4987194;28;20449;-85
2023/01/26 08:26:21;;;;;;;18.93;11.37;;;;;;;-0.88;100.00;151146.50;4988440;28;20865;-86
2023/01/26 08:28:48;;;;;;;18.03;10.60;;;;;;;-0.88;100.00;151147.78;4989737;28;20814;-86
2023/01/26 08:31:18;;;;;;;17.33;10.93;;;;;;;-0.83;100.00;151159.31;4984605;28;20547;-86
2023/01/26 08:33:46;;;;;;;15.97;10.83;;;;;;;-0.90;100.00;151141.38;4981155;28;20464;-86
2023/01/26 08:36:14;;;;;;;16.40;9.40;;;;;;;-0.85;100.00;151154.19;4982687;28;20804;-85
2023/01/26 08:38:42;;;;;;;15.00;10.10;;;;;;;-0.82;100.00;151161.91;4973559;28;20480;-86
2023/01/26 08:41:10;;;;;;;16.30;9.00;;;;;;;-0.85;100.00;151154.19;4970863;28;20585;-86
2023/01/26 08:43:36;;;;;;;17.27;10.07;;;;;;;-0.86;100.00;151152.91;4983406;28;20575;-86
2023/01/26 08:46:04;;;;;;;18.63;10.23;;;;;;;-0.85;100.00;151155.44;4990400;28;20452;-86
2023/01/26 08:48:31;;;;;;;14.80;9.23;;;;;;;-0.80;100.00;151167.00;4990256;28;20525;-86
2023/01/26 08:50:59;;;;;;;19.30;10.30;;;;;;;-0.83;100.00;151159.31;4982693;28;20855;-86
2023/01/26 08:53:26;;;;;;;19.20;9.93;;;;;;;-0.82;100.00;151161.91;4984854;28;20572;-86
2023/01/26 08:55:54;;;;;;;15.10;9.17;;;;;;;-0.82;100.00;151161.91;4982859;28;20496;-86
2023/01/26 08:58:21;;;;;;;14.73;8.93;;;;;;;-0.80;100.00;151168.31;4989290;28;20490;-86
2023/01/26 09:00:47;;;;;;;17.77;11.33;;;;;;;-0.80;100.00;151168.31;4990245;28;20526;-86
2023/01/26 09:03:14;;;;;;;17.60;9.13;;;;;;;-0.73;100.00;151184.94;4987640;28;20460;-86
2023/01/26 09:05:41;;;;;;;19.23;10.13;;;;;;;-0.67;100.00;151200.34;4989773;28;20456;-85
2023/01/26 09:08:09;;;;;;;13.10;8.20;;;;;;;-0.75;100.00;151179.84;4973978;28;20475;-85
2023/01/26 09:10:37;;;;;;;10.63;7.20;;;;;;;-0.72;100.00;151187.53;4991681;28;20545;-86
2023/01/26 09:13:05;;;;;;;14.83;8.90;;;;;;;-0.72;100.00;151187.53;4990573;28;21028;-86
2023/01/26 09:15:37;;;;;;;19.27;10.33;;;;;;;-0.67;100.00;151200.34;4970989;28;20456;-85
2023/01/26 09:18:04;;;;;;;14.10;9.70;;;;;;;-0.62;100.00;151213.19;4988038;28;20501;-86
2023/01/26 09:20:31;;;;;;;11.50;8.13;;;;;;;-0.62;100.00;151213.19;4988834;28;20446;-86
2023/01/26 09:22:58;;;;;;;14.47;7.60;;;;;;;-0.73;100.00;151186.25;4990060;28;20543;-86
2023/01/26 09:25:24;;;;;;;16.30;9.40;;;;;;;-0.71;100.00;151190.06;4987782;28;20457;-86
2023/01/26 09:27:51;;;;;;;11.97;8.13;;;;;;;-0.64;100.00;151208.06;4986358;28;20481;-86
2023/01/26 09:30:19;;;;;;;10.10;7.53;;;;;;;-0.73;100.00;151184.94;4990407;28;20457;-86
2023/01/26 09:32:46;;;;;;;13.00;8.23;;;;;;;-0.77;100.00;151175.97;4987611;28;20456;-86
2023/01/26 09:35:13;;;;;;;11.70;7.70;;;;;;;-0.79;100.00;151170.84;4988993;28;20547;-86
2023/01/26 09:37:39;;;;;;;13.30;8.43;;;;;;;-0.74;100.00;151182.38;4988408;28;20556;-86
2023/01/26 09:40:08;;;;;;;9.97;7.27;;;;;;;-0.64;100.00;151208.06;4990833;28;21135;-86
2023/01/26 09:42:49;;;;;;;13.60;7.90;;;;;;;-0.73;100.00;151184.94;4999832;28;20821;-87
2023/01/26 09:45:24;;;;;;;11.60;7.53;;;;;;;-0.72;100.00;151188.81;4983963;28;20485;-87
2023/01/26 09:48:24;;;;;;;11.70;7.67;;;;;;;-0.61;100.00;151215.75;4999165;28;22129;-87
2023/01/26 09:50:55;;;;;;;13.40;7.97;;;;;;;-0.61;100.00;151215.75;5007168;28;20455;-87
2023/01/26 09:53:26;;;;;;;15.60;9.60;;;;;;;-0.63;100.00;151210.59;4986443;28;20478;-86
2023/01/26 09:55:55;;;;;;;14.20;7.77;;;;;;;-0.61;100.00;151215.75;4987661;28;21100;-86
2023/01/26 09:58:31;;;;;;;11.30;7.80;;;;;;;-0.64;100.00;151208.06;4987582;28;20448;-86
2023/01/26 10:01:01;;;;;;;15.47;8.93;;;;;;;-0.64;100.00;151208.06;4980742;28;20538;-87
2023/01/26 10:03:32;;;;;;;14.77;9.80;;;;;;;-0.68;100.00;151197.78;4968667;28;20837;-86
2023/01/26 10:06:03;;;;;;;12.70;7.93;;;;;;;-0.66;100.00;151204.19;4985889;28;20520;-87
2023/01/26 10:08:49;;;;;;;10.10;7.00;;;;;;;-0.57;100.00;151226.00;4976731;28;20685;-86
2023/01/26 10:11:19;;;;;;;12.60;8.67;;;;;;;-0.55;100.00;151231.13;4974861;28;20452;-86
2023/01/26 10:13:51;;;;;;;13.37;9.13;;;;;;;-0.52;100.00;151237.53;4986367;28;20454;-86
2023/01/26 10:16:23;;;;;;;13.10;7.87;;;;;;;-0.56;100.00;151228.59;4982362;28;20450;-87
2023/01/26 10:18:54;;;;;;;12.63;7.90;;;;;;;-0.64;100.00;151208.06;4986259;28;20455;-86
2023/01/26 10:21:22;;;;;;;10.57;6.83;;;;;;;-0.65;100.00;151205.47;4988830;28;20444;-87
2023/01/26 10:23:50;;;;;;;10.63;6.63;;;;;;;-0.65;100.00;151205.47;4987890;28;20512;-86
2023/01/26 10:26:18;;;;;;;12.53;7.47;;;;;;;-0.61;100.00;151215.75;4985290;28;20532;-87
2023/01/26 10:28:46;;;;;;;11.27;7.70;;;;;;;-0.58;100.00;151223.41;4988104;28;20485;-87
2023/01/26 10:31:16;;;;;;;12.37;8.03;;;;;;;-0.49;100.00;151246.53;4989508;28;20476;-87
2023/01/26 10:33:49;;;;;;;11.27;6.90;;;;;;;-0.52;100.00;151238.81;4987185;28;20556;-87
2023/01/26 10:36:16;;;;;;;14.43;7.07;;;;;;;-0.52;100.00;151238.81;5000308;28;20916;-87
2023/01/26 10:38:44;;;;;;;12.30;8.80;;;;;;;-0.52;100.00;151238.81;4986075;28;20450;-87
2023/01/26 10:41:25;;;;;;;12.03;8.23;;;;;;;-0.44;100.00;151258.03;4982508;28;20896;-87
2023/01/26 10:43:54;;;;;;;9.70;7.37;;;;;;;-0.47;100.00;151250.34;4982777;28;20823;-87
2023/01/26 10:46:29;;;;;;;12.30;8.07;;;;;;;-0.49;100.00;151245.22;4980469;28;20549;-88
2023/01/26 10:48:59;;;;;;;11.63;6.47;;;;;;;-0.50;100.00;151243.94;4985901;28;20474;-87
2023/01/26 10:51:29;;;;;;;11.70;6.83;;;;;;;-0.50;100.00;151243.94;4987059;28;20453;-88
2023/01/26 10:54:22;;;;;;;12.30;7.67;;;;;;;-0.51;100.00;151240.09;4981914;28;20450;-87
2023/01/26 10:56:51;;;;;;;10.60;6.30;;;;;;;-0.50;100.00;151242.69;4977345;28;20546;-87
2023/01/26 10:59:25;;;;;;;10.03;6.33;;;;;;;-0.60;100.00;151218.28;4982793;28;20455;-87
2023/01/26 11:01:53;;;;;;;10.40;6.10;;;;;;;-0.59;100.00;151220.88;4979582;28;20469;-87
2023/01/26 11:04:22;;;;;;;7.93;5.17;;;;;;;-0.50;100.00;151243.94;4977478;28;20549;-87
2023/01/26 11:06:49;;;;;;;10.07;6.43;;;;;;;-0.54;100.00;151233.69;4985883;28;20560;-86
2023/01/26 11:09:20;;;;;;;9.73;7.17;;;;;;;-0.51;100.00;151240.09;4980790;28;20469;-87
2023/01/26 11:12:01;;;;;;;10.07;6.70;;;;;;;-0.46;100.00;151254.22;4994229;28;20456;-86
2023/01/26 11:14:29;;;;;;;9.57;6.20;;;;;;;-0.44;100.00;151259.34;4998136;28;20449;-87
2023/01/26 11:17:02;;;;;;;8.60;5.93;;;;;;;-0.47;100.00;151251.63;4987578;28;20527;-87
2023/01/26 11:19:55;;;;;;;9.47;6.20;;;;;;;-0.52;100.00;151238.81;4964938;28;20550;-87
2023/01/26 11:22:25;;;;;;;9.40;5.90;;;;;;;-0.54;100.00;151232.41;4983520;28;20460;-87
2023/01/26 11:25:00;;;;;;;7.30;6.20;;;;;;;-0.50;100.00;151243.94;4999717;28;20450;-86
2023/01/26 11:27:35;;;;;;;9.00;6.37;;;;;;;-0.55;100.00;151231.13;4979078;28;20540;-87
2023/01/26 11:30:14;;;;;;;10.33;7.17;;;;;;;-0.57;100.00;151226.00;4981124;28;20452;-87
2023/01/26 11:32:46;;;;;;;9.80;6.77;;;;;;;-0.66;100.00;151204.19;5000148;28;20452;-86
2023/01/26 11:35:23;;;;;;;11.33;6.60;;;;;;;-0.66;100.00;151204.19;4986511;28;20453;-87
2023/01/26 11:37:58;;;;;;;12.30;8.23;;;;;;;-0.68;100.00;151197.78;4985479;28;20481;-87
2023/01/26 11:40:30;;;;;;;12.77;7.47;;;;;;;-0.76;100.00;151177.25;4975548;28;20780;-86
2023/01/26 11:43:34;;;;;;;14.37;9.10;;;;;;;-0.80;100.00;151167.00;4986678;28;20442;-86
2023/01/26 11:46:16;;;;;;;10.00;7.33;;;;;;;-0.80;100.00;151167.00;4970472;28;20467;-86
2023/01/26 11:48:52;;;;;;;15.10;8.07;;;;;;;-0.85;100.00;151154.19;4980930;28;20746;-86
2023/01/26 11:51:30;;;;;;;10.90;7.57;;;;;;;-0.95;100.00;151128.50;4984429;28;20539;-87
2023/01/26 11:54:08;;;;;;;11.20;7.87;;;;;;;-0.98;100.00;151122.09;4985756;28;20451;-87
2023/01/26 11:56:43;;;;;;;11.50;7.03;;;;;;;-0.93;100.00;151133.69;4966027;28;20450;-87
2023/01/26 11:59:13;;;;;;;13.10;7.87;;;;;;;-0.92;100.00;151137.50;4981811;28;20460;-77
2023/01/26 12:01:42;;;;;;;13.17;8.47;;;;;;;-1.04;100.00;151105.47;4981390;28;20584;-76
2023/01/26 12:04:14;;;;;;;8.73;6.37;;;;;;;-1.04;100.00;151105.47;4985944;28;20885;-77
2023/01/26 12:06:45;;;;;;;11.67;6.43;;;;;;;-1.09;100.00;151092.66;4985358;28;21036;-76